Terminal Aerodrome Forecast
Issued by NWS

Home | Current Version | Previous Version | Graphics & Text | Print | Product List | Glossary On
Versions: 1 2 3 4 5 6 7 8 9 10 11 12 13 14 15 16 17 18
000
FTUS42 KMHX 150538
TAFPGV
TAF
KPGV 150538Z 1506/1606 01004KT P6SM FEW200
     FM151800 01006KT P6SM SCT025 BKN090
     FM152000 01006KT P6SM BKN020 BKN070
     FM160500 VRB04KT P6SM BKN045
      AMD LTD TO CLD VIS AND WIND=

USA.gov is the U.S. government's official web portal to all federal, state and local government web resources and services.